Red Rock, Arizona
Current Conditions -  °F | °C
As of 11:15 AM on Monday 20 Oct 2014 (Local Time) from KCGZ Reporting Station
Clear Clear  
Wind Chill: 81°   Ceiling: Unl
Heat Index: 81°   Visibility: 10mi
Dew Point: 48°   Wind: 6mph
Humidity: 32%   Direction: 80°E
Pressure: 29.93"   Gusts: NA
Location:  32.58°N, 111.39°W
Report Text: KCGZ 201815Z AUTO 08005KT 10SM CLR 27/09 A2993 RMK AO1
Loading
Personal Weather Stations






























Interactive Weather Map
Tropical Storm Tracking
New forecast layout! Learn more

10-Day Weather Forecast

Advertisements
Track Severe Weather on mobile